Time;durP1;ratioP1;P1;durP2;ratioP2;P2;SDS_P1;SDS_P2;PMS_P1;PMS_P2;Temp;Humidity;BMP_temperature;BMP_pressure;BME280_temperature;BME280_humidity;BME280_pressure;Samples;Min_cycle;Max_cycle;Signal;HPM_P1;HPM_P2
2022/07/19 00:00:24;;;;;;;;;;;21.20;85.60;;;19.89;54.52;96146.16;10489290;28;1929;-80
2022/07/19 00:05:27;;;;;;;;;;;21.10;86.00;;;19.66;55.83;96144.75;10489643;28;2124;-77
2022/07/19 00:10:30;;;;;;;;;;;20.90;86.80;;;19.81;55.83;96146.19;10473603;28;2075;-78
2022/07/19 00:15:33;;;;;;;;;;;20.70;87.20;;;19.44;57.53;96141.03;10483280;28;1915;-79
2022/07/19 00:20:36;;;;;;;;;;;20.60;87.70;;;19.36;58.01;96139.13;10494092;28;1994;-79
2022/07/19 00:25:40;;;;;;;;;;;20.50;88.40;;;19.49;57.69;96147.47;10486841;28;1898;-80
2022/07/19 00:30:43;;;;;;;;;;;20.40;88.60;;;19.34;58.29;96146.00;10494811;28;1869;-79
2022/07/19 00:35:46;;;;;;;;;;;20.40;88.70;;;19.29;59.04;96143.44;10479378;28;1991;-79
2022/07/19 00:40:49;;;;;;;;;;;20.30;89.10;;;19.30;58.93;96140.41;10478030;28;1960;-78
2022/07/19 00:45:52;;;;;;;;;;;20.30;89.20;;;19.90;56.54;96142.28;10499660;28;1889;-78
2022/07/19 00:50:55;;;;;;;;;;;20.50;88.90;;;19.57;57.14;96146.66;10526036;28;1857;-78
2022/07/19 00:55:59;;;;;;;;;;;20.60;88.40;;;19.34;58.18;96141.38;10498019;28;1999;-80
2022/07/19 01:01:02;;;;;;;;;;;20.50;88.70;;;19.14;59.18;96137.31;10493269;28;2001;-77
2022/07/19 01:06:05;;;;;;;;;;;20.30;89.10;;;19.30;58.56;96134.94;10482295;28;1894;-80
2022/07/19 01:11:09;;;;;;;;;;;20.30;89.30;;;19.07;59.33;96130.75;10487061;28;2098;-79
2022/07/19 01:16:15;;;;;;;;;;;20.10;89.30;;;19.34;58.14;96125.03;10494508;28;1905;-79
2022/07/19 01:21:24;;;;;;;;;;;20.20;89.50;;;19.02;59.89;96133.63;10494270;28;1961;-80
2022/07/19 01:26:29;;;;;;;;;;;20.10;89.80;;;18.82;60.95;96130.38;10501545;28;1913;-78
2022/07/19 01:31:45;;;;;;;;;;;19.90;90.10;;;18.73;62.57;96128.78;10487618;28;1928;-78
2022/07/19 01:36:58;;;;;;;;;;;19.80;91.10;;;18.60;62.33;96133.22;10494741;28;1965;-79
2022/07/19 01:42:02;;;;;;;;;;;19.60;91.20;;;18.50;63.76;96133.47;10489719;28;2114;-78
2022/07/19 01:47:06;;;;;;;;;;;19.50;92.00;;;18.43;64.11;96133.13;10492925;28;1921;-79
2022/07/19 01:52:09;;;;;;;;;;;19.50;92.40;;;18.40;64.76;96136.50;10497205;28;1962;-80
2022/07/19 01:57:12;;;;;;;;;;;19.40;92.60;;;18.39;64.88;96138.44;10478632;28;1888;-79
2022/07/19 02:02:15;;;;;;;;;;;19.40;92.90;;;18.53;64.17;96130.94;10495315;28;1909;-79
2022/07/19 02:07:19;;;;;;;;;;;19.50;93.00;;;18.68;62.94;96135.16;10493542;28;1821;-79
2022/07/19 02:12:23;;;;;;;;;;;19.50;92.60;;;18.90;61.74;96126.91;10495332;28;2050;-76
2022/07/19 02:17:26;;;;;;;;;;;19.50;92.20;;;18.64;62.48;96120.56;10497502;28;1920;-79
2022/07/19 02:22:29;;;;;;;;;;;19.70;99.90;;;18.98;61.55;96116.34;10522483;28;1624;-79
2022/07/19 02:27:32;;;;;;;;;;;19.50;92.30;;;19.02;61.64;96106.38;10538136;28;1754;-79
2022/07/19 02:32:36;;;;;;;;;;;19.60;92.20;;;18.51;63.95;96110.56;10507064;28;1862;-78
2022/07/19 02:37:39;;;;;;;;;;;19.60;99.90;;;18.51;64.13;96100.53;10488899;28;1968;-78
2022/07/19 02:42:43;;;;;;;;;;;19.30;93.00;;;18.70;63.42;96100.25;10511919;28;1862;-79
2022/07/19 02:47:46;;;;;;;;;;;19.50;93.00;;;18.57;64.03;96101.16;10504245;28;1863;-78
2022/07/19 02:52:50;;;;;;;;;;;19.50;93.00;;;18.31;65.89;96093.72;10481439;28;2105;-77
2022/07/19 02:57:53;;;;;;;;;;;19.30;93.50;;;18.33;66.39;96093.41;10492716;28;1980;-78
2022/07/19 03:03:43;;;;;;;;;;;19.10;94.10;;;18.29;66.07;96089.72;10477425;28;1835;-77
2022/07/19 03:08:19;;;;;;;;;;;19.30;94.20;;;18.07;66.79;96105.00;10494002;28;1898;-78
2022/07/19 03:13:22;;;;;;;;;;;19.00;94.50;;;17.90;68.25;96099.47;10494696;28;1846;-79
2022/07/19 03:18:25;;;;;;;;;;;18.90;95.20;;;17.94;68.30;96105.91;10471667;28;1928;-80
2022/07/19 03:23:28;;;;;;;;;;;18.90;95.60;;;17.91;68.31;96094.81;10492978;28;1751;-79
2022/07/19 03:28:30;;;;;;;;;;;18.80;95.60;;;18.07;68.07;96099.56;10478738;28;1532;-80
2022/07/19 03:33:33;;;;;;;;;;;18.80;95.90;;;18.60;65.44;96105.97;10494755;28;1410;-79
2022/07/19 03:38:37;;;;;;;;;;;19.00;96.60;;;18.63;64.72;96102.59;10498251;28;1953;-79
2022/07/19 03:43:39;;;;;;;;;;;19.20;99.90;;;18.70;64.71;96111.13;10496345;28;1862;-79
2022/07/19 03:48:42;;;;;;;;;;;19.30;94.80;;;18.36;65.78;96100.94;10498963;28;1851;-79
2022/07/19 03:53:46;;;;;;;;;;;19.20;99.90;;;18.64;64.31;96102.31;10497465;28;2113;-79
2022/07/19 03:58:49;;;;;;;;;;;19.30;94.30;;;18.50;64.95;96107.06;10478316;28;1910;-78
2022/07/19 04:03:52;;;;;;;;;;;19.30;94.20;;;18.60;63.81;96105.97;10495932;28;1818;-78
2022/07/19 04:08:55;;;;;;;;;;;19.30;94.00;;;19.00;61.41;96095.00;10486960;28;1486;-78
2022/07/19 04:13:57;;;;;;;;;;;19.60;93.50;;;19.07;60.68;96103.50;10496724;28;1596;-79
2022/07/19 04:19:02;;;;;;;;;;;19.80;93.80;;;19.10;61.09;96100.16;10488052;28;1947;-79
2022/07/19 04:24:05;;;;;;;;;;;19.80;94.50;;;19.40;60.21;96107.38;10475440;28;1893;-77
2022/07/19 04:29:13;;;;;;;;;;;19.70;95.20;;;19.87;57.88;96099.31;10487897;28;2168;-80
2022/07/19 04:34:17;;;;;;;;;;;20.10;95.20;;;19.58;57.41;96091.00;10480627;28;2042;-78
2022/07/19 04:39:19;;;;;;;;;;;20.30;94.50;;;19.68;57.59;96102.41;10480605;28;1918;-79
2022/07/19 04:44:22;;;;;;;;;;;20.30;95.20;;;19.54;57.57;96090.03;10493174;28;1824;-79
2022/07/19 04:49:25;;;;;;;;;;;20.40;95.60;;;19.62;57.06;96092.78;10475052;28;2035;-79
2022/07/19 04:54:29;;;;;;;;;;;20.20;96.20;;;20.14;54.78;96078.97;10476082;28;2098;-78
2022/07/19 04:59:32;;;;;;;;;;;20.40;99.30;;;20.56;53.50;96097.47;10489263;28;1984;-79
2022/07/19 05:04:35;;;;;;;;;;;20.90;97.00;;;20.90;51.99;96101.91;10473891;28;1870;-78
2022/07/19 05:09:38;;;;;;;;;;;21.20;94.70;;;21.02;51.82;96094.59;10474545;28;2094;-78
2022/07/19 05:14:41;;;;;;;;;;;21.40;94.80;;;21.29;50.84;96100.69;10489138;28;1913;-79
2022/07/19 05:19:44;;;;;;;;;;;21.70;94.60;;;21.49;49.91;96102.59;10495231;28;1898;-78
2022/07/19 05:24:47;;;;;;;;;;;21.90;94.40;;;21.05;50.21;96104.84;10489943;28;1826;-81
2022/07/19 05:29:49;;;;;;;;;;;21.90;94.60;;;20.94;50.52;96103.66;10490586;28;1827;-81
2022/07/19 05:34:52;;;;;;;;;;;21.70;95.40;;;21.39;49.50;96097.56;10489701;28;1860;-79
2022/07/19 05:39:55;;;;;;;;;;;21.80;94.70;;;21.38;49.25;96103.38;10475325;28;2011;-80
2022/07/19 05:44:59;;;;;;;;;;;22.00;94.20;;;21.51;49.63;96099.56;10486878;28;1951;-81
2022/07/19 05:50:01;;;;;;;;;;;22.00;94.80;;;21.68;49.79;96106.78;10485355;28;2104;-82
2022/07/19 05:55:05;;;;;;;;;;;22.30;95.40;;;21.64;50.21;96092.19;10471280;28;1877;-84
2022/07/19 06:00:08;;;;;;;;;;;22.20;96.30;;;21.79;49.20;96100.56;10476417;28;1882;-85
2022/07/19 06:05:12;;;;;;;;;;;22.40;95.90;;;22.11;48.84;96090.72;10484779;28;1885;-81
2022/07/19 06:10:15;;;;;;;;;;;22.70;96.20;;;22.32;48.89;96100.78;10471347;28;1871;-82
2022/07/19 06:15:19;;;;;;;;;;;22.70;97.20;;;22.31;48.68;96101.94;10469994;28;1873;-82
2022/07/19 06:20:23;;;;;;;;;;;22.90;97.60;;;23.12;47.40;96090.03;10493559;28;1979;-83
2022/07/19 06:25:26;;;;;;;;;;;23.30;98.50;;;23.12;46.44;96101.00;10481880;28;1818;-84
2022/07/19 06:30:29;;;;;;;;;;;23.70;97.30;;;22.70;47.77;96094.19;10486397;28;1897;-83
2022/07/19 06:35:32;;;;;;;;;;;23.60;97.70;;;23.11;46.44;96098.63;10486983;28;1848;-84
2022/07/19 06:40:35;;;;;;;;;;;23.30;98.00;;;23.56;46.94;96097.56;10487176;28;2130;-83
2022/07/19 06:45:38;;;;;;;;;;;23.90;98.90;;;24.30;45.54;96098.00;10519313;28;1824;-83
2022/07/19 06:50:41;;;;;;;;;;;24.50;99.50;;;24.41;44.42;96088.09;10511401;28;1682;-84
2022/07/19 06:55:47;;;;;;;;;;;24.80;98.00;;;24.28;44.21;96085.41;10489803;28;2066;-83
2022/07/19 07:00:54;;;;;;;;;;;25.00;97.20;;;24.36;43.33;96091.91;10492137;28;1910;-84
2022/07/19 07:05:57;;;;;;;;;;;25.20;96.60;;;23.87;44.18;96089.44;10491407;28;2043;-82
2022/07/19 07:11:19;;;;;;;;;;;24.80;97.50;;;24.72;42.41;96093.56;10484816;28;2254;-82
2022/07/19 07:16:25;;;;;;;;;;;24.90;98.20;;;24.99;42.02;96096.53;10487852;28;1909;-83
2022/07/19 07:21:29;;;;;;;;;;;25.50;97.40;;;24.75;41.09;96097.56;10491529;28;1993;-84
2022/07/19 07:26:33;;;;;;;;;;;25.40;96.80;;;24.95;40.83;96088.22;10491938;28;1864;-80
2022/07/19 07:31:36;;;;;;;;;;;25.50;96.80;;;25.09;40.80;96084.22;10469713;28;1857;-80
2022/07/19 07:36:39;;;;;;;;;;;25.60;97.00;;;25.44;39.62;96073.94;10484509;28;1804;-81
2022/07/19 07:41:42;;;;;;;;;;;25.90;96.90;;;25.31;40.01;96075.25;10486825;28;1914;-80
2022/07/19 07:46:59;;;;;;;;;;;25.90;86.40;;;25.37;40.01;96073.00;10473119;28;2070;-80
2022/07/19 07:52:03;;;;;;;;;;;26.10;95.70;;;26.20;39.55;96071.47;10491257;28;1883;-81
2022/07/19 07:57:06;;;;;;;;;;;26.40;99.90;;;26.47;37.50;96072.38;10494016;28;2317;-80
2022/07/19 08:02:08;;;;;;;;;;;27.00;98.90;;;26.38;39.23;96067.06;10493350;28;2133;-79
2022/07/19 08:07:12;;;;;;;;;;;27.10;99.90;;;26.22;38.45;96062.88;10487070;28;2042;-80
2022/07/19 08:12:16;;;;;;;;;;;27.10;99.90;;;26.59;37.01;96060.34;10492304;28;1797;-79
2022/07/19 08:17:18;;;;;;;;;;;27.10;99.90;;;26.76;36.41;96059.03;10476396;28;1887;-80
2022/07/19 08:22:21;;;;;;;;;;;27.50;99.90;;;26.08;38.11;96058.69;10471248;28;2249;-82
2022/07/19 08:27:24;;;;;;;;;;;27.30;99.90;;;26.29;37.35;96058.28;10504181;28;1882;-80
2022/07/19 08:32:27;;;;;;;;;;;27.10;99.90;;;26.93;35.50;96053.78;10541116;28;1570;-81
2022/07/19 08:37:30;;;;;;;;;;;27.30;99.90;;;26.90;35.70;96048.97;10507123;28;1709;-81
2022/07/19 08:42:32;;;;;;;;;;;27.60;99.90;;;27.28;31.78;96054.66;10490211;28;1975;-80
2022/07/19 08:47:37;;;;;;;;;;;27.90;99.90;;;27.57;32.78;96055.81;10478511;28;1888;-80
2022/07/19 08:52:40;;;;;;;;;;;28.00;99.90;;;27.77;31.09;96048.97;10501064;28;1892;-80
2022/07/19 08:57:58;;;;;;;;;;;28.30;99.90;;;28.13;29.49;96043.81;10496966;28;1840;-81
2022/07/19 09:03:01;;;;;;;;;;;;;;;27.94;29.57;96045.59;10484171;28;1940;-81
2022/07/19 09:08:04;;;;;;;;;;;;;;;28.50;29.42;96036.25;10493278;28;1813;-81
2022/07/19 09:13:09;;;;;;;;;;;;;;;28.01;29.04;96044.88;10500597;28;2026;-78
2022/07/19 09:18:12;;;;;;;;;;;;;;;28.19;28.12;96039.50;10519115;28;1795;-78
2022/07/19 09:23:16;;;;;;;;;;;;;;;27.92;27.71;96031.34;10501573;28;1895;-80
2022/07/19 09:28:20;;;;;;;;;;;;;;;28.11;27.72;96038.63;10475778;28;2040;-79
2022/07/19 09:33:24;;;;;;;;;;;;;;;28.38;27.58;96039.31;10484457;28;2039;-82
2022/07/19 09:38:28;;;;;;;;;;;;;;;28.29;27.46;96024.97;10474383;28;2012;-79
2022/07/19 09:43:30;;;;;;;;;;;29.20;63.30;;;28.75;26.26;96022.56;10481734;28;2010;-80
2022/07/19 09:48:54;;;;;;;;;;;29.30;63.10;;;29.15;26.33;96018.09;10487725;28;1870;-80
2022/07/19 09:53:57;;;;;;;;;;;29.80;62.50;;;29.08;26.30;96004.25;10483862;28;1804;-81
2022/07/19 09:58:59;;;;;;;;;;;29.90;61.90;;;29.51;26.57;96005.22;10488209;28;1873;-81
2022/07/19 10:04:02;;;;;;;;;;;30.10;63.30;;;29.42;27.42;96015.06;10473394;28;2021;-81
2022/07/19 10:09:05;;;;;;;;;;;30.40;63.70;;;29.20;28.33;96003.09;10474428;28;1965;-81
2022/07/19 10:14:08;;;;;;;;;;;30.10;64.80;;;29.23;27.59;95980.16;10476616;28;1888;-81
2022/07/19 10:19:11;;;;;;;;;;;30.10;63.80;;;29.13;27.48;95990.00;10493130;28;1847;-79
2022/07/19 10:24:14;;;;;;;;;;;29.90;63.30;;;29.48;26.52;95981.06;10480214;28;1926;-80
2022/07/19 10:29:17;;;;;;;;;;;30.30;62.90;;;29.06;27.64;95979.69;10474214;28;1817;-78
2022/07/19 10:34:21;;;;;;;;;;;30.20;63.50;;;29.19;27.33;95980.16;10484661;28;1882;-79
2022/07/19 10:39:26;;;;;;;;;;;30.00;63.80;;;29.86;25.85;95990.66;10489769;28;1811;-79
2022/07/19 10:44:32;;;;;;;;;;;30.40;62.30;;;29.96;26.26;95982.75;10490061;28;1964;-80
2022/07/19 10:49:35;;;;;;;;;;;30.80;62.20;;;30.49;24.92;95976.47;10484523;28;1820;-79
2022/07/19 10:54:38;;;;;;;;;;;31.20;61.30;;;31.33;23.60;95980.22;10486687;28;1789;-82
2022/07/19 10:59:40;;;;;;;;;;;32.40;60.00;;;31.71;22.81;95983.22;10471782;28;2023;-80
2022/07/19 11:04:43;;;;;;;;;;;33.30;58.80;;;31.52;23.76;95970.63;10474486;28;1841;-80
2022/07/19 11:09:47;;;;;;;;;;;33.40;58.90;;;31.14;23.76;95972.34;10487171;28;2036;-80
2022/07/19 11:14:50;;;;;;;;;;;33.30;58.60;;;31.70;22.99;95960.19;10458914;28;2567;-78
2022/07/19 11:20:16;;;;;;;;;;;33.50;58.30;;;31.78;23.39;95949.81;10481527;28;2197;-77
2022/07/19 11:25:19;;;;;;;;;;;33.50;58.50;;;31.59;23.36;95948.34;10461198;28;2094;-84
2022/07/19 11:30:22;;;;;;;;;;;33.50;57.90;;;31.41;23.33;95942.09;10476222;28;2194;-80
2022/07/19 11:35:25;;;;;;;;;;;33.50;57.80;;;31.50;23.55;95939.69;10469051;28;1935;-82
2022/07/19 11:40:28;;;;;;;;;;;33.20;58.80;;;30.80;23.68;95942.34;10467092;28;1987;-82
2022/07/19 11:45:31;;;;;;;;;;;32.40;58.00;;;30.92;23.46;95913.31;10486284;28;1948;-78
2022/07/19 11:50:34;;;;;;;;;;;31.90;58.10;;;30.60;25.33;95916.19;10494595;28;2316;-82
2022/07/19 11:55:37;;;;;;;;;;;31.80;60.10;;;30.61;26.61;95910.25;10482355;28;1876;-82
2022/07/19 12:00:43;;;;;;;;;;;31.50;61.80;;;31.06;25.39;95898.63;10494214;28;2202;-82
2022/07/19 12:05:47;;;;;;;;;;;31.70;60.60;;;30.80;26.56;95902.69;10494288;28;1852;-81
2022/07/19 12:10:50;;;;;;;;;;;31.80;61.60;;;30.82;25.65;95900.31;10485704;28;1956;-83
2022/07/19 12:15:53;;;;;;;;;;;31.70;60.80;;;30.67;26.04;95905.09;10498791;28;1761;-83
2022/07/19 12:20:56;;;;;;;;;;;31.50;61.60;;;30.54;26.04;95901.94;10494781;28;1906;-83
2022/07/19 12:26:00;;;;;;;;;;;31.40;61.30;;;30.62;26.23;95892.41;10486863;28;1777;-83
2022/07/19 12:31:03;;;;;;;;;;;31.40;61.50;;;30.92;25.21;95888.34;10496798;28;1871;-81
2022/07/19 12:36:07;;;;;;;;;;;31.70;60.80;;;31.15;24.97;95885.88;10483252;28;1875;-83
2022/07/19 12:41:10;;;;;;;;;;;32.00;60.90;;;31.20;24.47;95877.13;10495245;28;1898;-82
2022/07/19 12:46:13;;;;;;;;;;;32.00;59.90;;;31.42;23.48;95879.78;10501602;28;1827;-81
2022/07/19 12:51:17;;;;;;;;;;;32.20;59.30;;;31.35;24.16;95880.63;10481683;28;1889;-82
2022/07/19 12:56:20;;;;;;;;;;;32.20;59.70;;;31.44;24.22;95863.53;10477761;28;1716;-82
2022/07/19 13:01:24;;;;;;;;;;;32.20;60.00;;;31.32;23.95;95866.78;10495046;28;1894;-80
2022/07/19 13:06:27;;;;;;;;;;;32.20;59.60;;;31.51;24.08;95868.25;10487590;28;1939;-80
2022/07/19 13:11:31;;;;;;;;;;;32.40;59.30;;;31.81;24.37;95856.50;10494311;28;1864;-81
2022/07/19 13:16:34;;;;;;;;;;;32.50;59.70;;;31.46;24.88;95855.56;10489729;28;1801;-80
2022/07/19 13:21:37;;;;;;;;;;;32.40;60.00;;;31.59;25.09;95848.31;10481371;28;1973;-83
2022/07/19 13:26:39;;;;;;;;;;;32.30;60.40;;;31.37;25.60;95858.03;10488145;28;1789;-81
2022/07/19 13:31:42;;;;;;;;;;;32.20;60.70;;;31.18;25.21;95848.97;10482392;28;1820;-80
2022/07/19 13:36:45;;;;;;;;;;;32.10;60.80;;;31.57;25.39;95833.28;10498250;28;1781;-79
2022/07/19 13:41:49;;;;;;;;;;;32.20;61.50;;;31.46;25.21;95855.56;10496410;28;1896;-82
2022/07/19 13:46:53;;;;;;;;;;;32.40;60.60;;;31.72;24.71;95840.28;10504397;28;1745;-79
2022/07/19 13:51:55;;;;;;;;;;;32.40;60.30;;;31.81;24.66;95831.50;10473896;28;1786;-82
2022/07/19 13:57:00;;;;;;;;;;;32.50;60.30;;;31.88;24.43;95837.03;10488848;28;1812;-82
2022/07/19 14:02:03;;;;;;;;;;;32.60;60.00;;;31.53;24.28;95827.72;10487146;28;1960;-80
2022/07/19 14:07:08;;;;;;;;;;;32.50;59.70;;;31.40;24.66;95823.88;10507839;28;1899;-83
2022/07/19 14:12:11;;;;;;;;;;;32.40;60.10;;;31.56;24.25;95813.03;10522653;28;1906;-81
2022/07/19 14:17:16;;;;;;;;;;;32.30;59.40;;;31.99;24.18;95815.44;10491062;28;1844;-80
2022/07/19 14:22:20;;;;;;;;;;;32.50;59.80;;;32.12;23.63;95819.28;10484899;28;2037;-81
2022/07/19 14:27:23;;;;;;;;;;;32.70;59.00;;;32.29;23.82;95812.75;10491742;28;1840;-84
2022/07/19 14:32:27;;;;;;;;;;;32.90;59.10;;;31.99;24.53;95810.69;10487130;28;1816;-81
2022/07/19 14:37:30;;;;;;;;;;;32.80;59.40;;;31.87;23.76;95802.06;10480798;28;1764;-83
2022/07/19 14:42:33;;;;;;;;;;;32.70;58.90;;;32.06;23.67;95803.47;10489698;28;1914;-79
2022/07/19 14:47:36;;;;;;;;;;;32.90;58.80;;;31.85;24.44;95798.91;10477103;28;1841;-83
2022/07/19 14:52:39;;;;;;;;;;;32.80;59.30;;;31.93;23.74;95794.84;10473415;28;1857;-79
2022/07/19 14:57:42;;;;;;;;;;;32.60;59.20;;;31.91;24.14;95798.06;10486826;28;1852;-80
2022/07/19 15:02:45;;;;;;;;;;;32.70;59.30;;;31.55;24.46;95797.53;10490994;28;1909;-81
2022/07/19 15:07:49;;;;;;;;;;;32.50;59.60;;;31.81;24.15;95787.03;10462555;28;2001;-80
2022/07/19 15:12:53;;;;;;;;;;;32.50;59.30;;;31.84;23.58;95786.22;10491561;28;1827;-77
2022/07/19 15:17:56;;;;;;;;;;;32.70;58.80;;;31.78;23.78;95776.72;10479311;28;1856;-79
2022/07/19 15:23:02;;;;;;;;;;;32.50;58.90;;;31.85;23.92;95782.25;10486876;28;1969;-78
2022/07/19 15:28:05;;;;;;;;;;;32.50;59.10;;;32.01;23.84;95783.28;10473617;28;1883;-80
2022/07/19 15:33:09;;;;;;;;;;;32.70;59.10;;;31.98;23.82;95780.53;10491172;28;1770;-78
2022/07/19 15:38:12;;;;;;;;;;;32.90;58.30;;;31.67;23.64;95772.03;10479594;28;1808;-78
2022/07/19 15:43:15;;;;;;;;;;;32.60;58.30;;;31.75;23.54;95781.13;10481579;28;1996;-79
2022/07/19 15:48:18;;;;;;;;;;;32.50;58.70;;;31.50;24.08;95770.22;10489763;28;1789;-79
2022/07/19 15:53:21;;;;;;;;;;;32.30;59.00;;;31.46;23.98;95769.47;10491686;28;1864;-79
2022/07/19 15:58:25;;;;;;;;;;;32.30;59.00;;;31.40;23.80;95757.22;10479285;28;1853;-78
2022/07/19 16:03:29;;;;;;;;;;;32.20;58.90;;;31.38;24.16;95759.63;10473651;28;1976;-79
2022/07/19 16:08:32;;;;;;;;;;;32.00;59.20;;;31.22;24.27;95752.53;10491716;28;1844;-79
2022/07/19 16:13:35;;;;;;;;;;;32.00;59.20;;;30.96;24.27;95750.34;10480306;28;1850;-79
2022/07/19 16:18:41;;;;;;;;;;;31.80;58.90;;;30.75;24.65;95759.59;10486212;28;1844;-77
2022/07/19 16:23:44;;;;;;;;;;;31.60;59.30;;;30.79;24.79;95740.94;10494959;28;1974;-79
2022/07/19 16:28:47;;;;;;;;;;;31.50;59.80;;;30.62;25.14;95750.94;10480814;28;1844;-81
2022/07/19 16:33:51;;;;;;;;;;;31.40;59.60;;;30.43;25.14;95745.88;10490521;28;2014;-80
2022/07/19 16:38:55;;;;;;;;;;;31.20;59.80;;;30.26;24.79;95741.97;10479252;28;1855;-79
2022/07/19 16:44:18;;;;;;;;;;;31.10;59.80;;;30.09;25.13;95738.06;10494900;28;1918;-80
2022/07/19 16:49:21;;;;;;;;;;;30.90;59.60;;;29.89;25.52;95745.22;10489778;28;1875;-78
2022/07/19 16:54:24;;;;;;;;;;;30.80;78.50;;;29.86;25.54;95746.81;10489874;28;1794;-79
2022/07/19 16:59:29;;;;;;;;;;;31.50;64.80;;;29.80;25.86;95745.66;10479576;28;1828;-80
2022/07/19 17:04:32;;;;;;;;;;;30.40;60.40;;;29.71;26.37;95747.22;10486801;28;1894;-78
2022/07/19 17:09:35;;;;;;;;;;;30.40;61.00;;;29.65;26.56;95740.50;10472779;28;1888;-79
2022/07/19 17:14:38;;;;;;;;;;;30.40;61.10;;;29.54;26.63;95743.31;10483109;28;2056;-80
2022/07/19 17:19:41;;;;;;;;;;;29.30;61.80;;;29.42;26.76;95749.22;10491053;28;1762;-81
2022/07/19 17:24:44;;;;;;;;;;;30.00;61.40;;;29.29;26.89;95757.13;10488763;28;2070;-80
2022/07/19 17:29:55;;;;;;;;;;;29.70;61.20;;;29.24;27.14;95755.53;10479226;28;1860;-81
2022/07/19 17:34:59;;;;;;;;;;;29.80;61.40;;;29.06;27.26;95755.53;10492499;28;1887;-79
2022/07/19 17:40:02;;;;;;;;;;;29.80;61.40;;;28.98;27.33;95751.19;10492755;28;1821;-77
2022/07/19 17:45:06;;;;;;;;;;;29.60;61.70;;;28.89;27.97;95750.75;10493533;28;1918;-79
2022/07/19 17:50:09;;;;;;;;;;;29.50;62.40;;;28.77;27.90;95748.34;10483309;28;1852;-78
2022/07/19 17:55:12;;;;;;;;;;;29.50;62.40;;;28.64;28.30;95745.16;10490164;28;1848;-79
2022/07/19 18:00:16;;;;;;;;;;;29.40;62.80;;;28.46;28.30;95753.41;10484031;28;1821;-78
2022/07/19 18:05:18;;;;;;;;;;;29.30;63.20;;;28.31;28.74;95759.22;10494422;28;1890;-80
2022/07/19 18:10:21;;;;;;;;;;;29.00;63.50;;;28.15;29.31;95751.28;10491781;28;1805;-78
2022/07/19 18:15:24;;;;;;;;;;;28.90;63.50;;;27.99;29.52;95748.81;10499690;28;1824;-79
2022/07/19 18:20:27;;;;;;;;;;;28.70;63.80;;;27.78;30.11;95749.47;10481150;28;1940;-80
2022/07/19 18:25:30;;;;;;;;;;;28.60;64.30;;;27.62;30.04;95751.72;10491583;28;1918;-80
2022/07/19 18:30:34;;;;;;;;;;;28.40;64.50;;;27.40;30.67;95750.78;10515803;28;1804;-80
2022/07/19 18:35:37;;;;;;;;;;;28.20;65.10;;;27.21;30.92;95751.81;10525923;28;1875;-80
2022/07/19 18:40:40;;;;;;;;;;;28.00;65.60;;;27.03;31.56;95751.59;10522851;28;1910;-79
2022/07/19 18:45:43;;;;;;;;;;;27.90;65.50;;;26.88;31.78;95752.66;10501820;28;1918;-79
2022/07/19 18:50:46;;;;;;;;;;;27.70;65.80;;;26.66;31.97;95751.66;10486335;28;1825;-80
2022/07/19 18:55:50;;;;;;;;;;;27.40;66.30;;;26.44;32.53;95758.09;10477365;28;2093;-80
2022/07/19 19:00:53;;;;;;;;;;;27.40;66.70;;;26.27;32.72;95756.69;10494273;28;1888;-80
2022/07/19 19:06:00;;;;;;;;;;;27.10;67.10;;;26.10;33.33;95758.84;10487757;28;1913;-79
2022/07/19 19:11:05;;;;;;;;;;;27.00;67.60;;;25.95;33.33;95759.03;10494957;28;1962;-80
2022/07/19 19:16:07;;;;;;;;;;;26.90;67.40;;;25.64;34.11;95758.19;10473594;28;1825;-79
2022/07/19 19:21:11;;;;;;;;;;;26.70;67.90;;;25.51;34.31;95754.03;10476926;28;1897;-79
2022/07/19 19:26:14;;;;;;;;;;;26.40;68.40;;;25.39;34.46;95768.81;10485400;28;1927;-79
2022/07/19 19:31:16;;;;;;;;;;;26.30;68.90;;;25.26;35.13;95770.97;10476091;28;1896;-79
2022/07/19 19:36:19;;;;;;;;;;;26.20;69.40;;;25.09;35.47;95771.47;10473394;28;1905;-79
2022/07/19 19:41:24;;;;;;;;;;;26.00;69.80;;;24.97;35.60;95777.13;10489329;28;1966;-79
2022/07/19 19:46:27;;;;;;;;;;;25.90;69.60;;;24.83;36.03;95787.88;10473730;28;2026;-80
2022/07/19 19:51:30;;;;;;;;;;;25.80;70.20;;;24.65;36.62;95784.78;10460055;28;2030;-78
2022/07/19 19:56:33;;;;;;;;;;;25.60;70.60;;;24.50;37.11;95786.47;10484926;28;1796;-80
2022/07/19 20:01:36;;;;;;;;;;;25.50;71.00;;;24.38;37.25;95783.88;10475972;28;1928;-79
2022/07/19 20:06:40;;;;;;;;;;;25.30;71.50;;;24.20;37.87;95781.50;10477269;28;1941;-79
2022/07/19 20:11:43;;;;;;;;;;;25.20;72.00;;;24.16;37.95;95775.16;10489143;28;1917;-78
2022/07/19 20:16:47;;;;;;;;;;;25.00;72.50;;;23.99;38.33;95776.38;10491214;28;1896;-79
2022/07/19 20:21:50;;;;;;;;;;;25.00;72.90;;;23.89;38.91;95776.94;10480483;28;1812;-80
2022/07/19 20:26:54;;;;;;;;;;;24.80;73.20;;;23.73;39.17;95779.72;10479151;28;1997;-79
2022/07/19 20:31:58;;;;;;;;;;;24.70;73.50;;;23.53;39.83;95778.03;10476699;28;1943;-79
2022/07/19 20:37:01;;;;;;;;;;;24.60;74.00;;;23.50;40.13;95776.03;10491524;28;1860;-80
2022/07/19 20:42:04;;;;;;;;;;;24.40;74.30;;;23.23;40.86;95776.94;10476390;28;1758;-79
2022/07/19 20:47:08;;;;;;;;;;;24.30;74.90;;;23.20;40.87;95783.91;10474193;28;1918;-78
2022/07/19 20:52:11;;;;;;;;;;;24.20;75.10;;;23.14;41.26;95775.16;10480033;28;1849;-79
2022/07/19 20:57:15;;;;;;;;;;;24.10;75.60;;;23.10;41.17;95773.50;10495070;28;1848;-78
2022/07/19 21:02:18;;;;;;;;;;;24.00;75.70;;;23.04;41.51;95781.19;10479955;28;2135;-79
2022/07/19 21:07:21;;;;;;;;;;;24.00;75.90;;;22.95;41.60;95774.28;10490961;28;1848;-77
2022/07/19 21:12:44;;;;;;;;;;;23.90;76.10;;;22.71;42.08;95777.91;10491521;28;1867;-79
2022/07/19 21:17:47;;;;;;;;;;;23.80;76.20;;;22.80;42.37;95775.84;10497054;28;1880;-79
2022/07/19 21:22:51;;;;;;;;;;;23.70;76.70;;;22.67;42.73;95773.16;10480803;28;1910;-80
2022/07/19 21:27:54;;;;;;;;;;;23.60;76.90;;;22.55;43.13;95770.47;10492967;28;1767;-79
2022/07/19 21:32:57;;;;;;;;;;;23.50;77.40;;;22.41;43.66;95777.53;10491707;28;1813;-79
2022/07/19 21:38:01;;;;;;;;;;;23.40;77.60;;;22.30;44.05;95779.97;10495483;28;1966;-79
2022/07/19 21:43:04;;;;;;;;;;;23.40;78.00;;;22.32;44.16;95783.13;10493938;28;1968;-79
2022/07/19 21:48:08;;;;;;;;;;;23.20;78.40;;;22.24;44.29;95781.34;10484178;28;1852;-79
2022/07/19 21:53:11;;;;;;;;;;;23.20;78.60;;;22.19;44.40;95784.31;10499445;28;1855;-79
2022/07/19 21:58:14;;;;;;;;;;;23.10;78.80;;;22.05;45.14;95781.94;10485963;28;1592;-79
2022/07/19 22:03:18;;;;;;;;;;;23.00;79.10;;;21.95;45.32;95779.69;10508667;28;1891;-79
2022/07/19 22:08:21;;;;;;;;;;;22.90;79.40;;;21.77;46.38;95777.25;10508806;28;1875;-79
2022/07/19 22:13:24;;;;;;;;;;;22.80;80.00;;;21.84;46.12;95773.91;10498230;28;1836;-78
2022/07/19 22:18:28;;;;;;;;;;;22.80;80.20;;;21.72;46.19;95782.16;10495865;28;1840;-79
2022/07/19 22:23:31;;;;;;;;;;;22.70;80.20;;;21.69;46.15;95771.88;10526460;28;1890;-78
2022/07/19 22:28:34;;;;;;;;;;;22.60;80.40;;;21.65;46.32;95782.72;10537888;28;1816;-78
2022/07/19 22:33:37;;;;;;;;;;;22.60;80.50;;;21.56;46.67;95773.84;10535726;28;1821;-79
2022/07/19 22:38:40;;;;;;;;;;;22.60;80.90;;;21.50;46.70;95773.28;10530471;28;1809;-78
2022/07/19 22:43:43;;;;;;;;;;;22.50;81.00;;;21.44;47.27;95776.56;10532741;28;1904;-79
2022/07/19 22:48:47;;;;;;;;;;;22.40;81.20;;;21.28;47.93;95779.19;10514197;28;1548;-79
2022/07/19 22:53:50;;;;;;;;;;;22.30;81.60;;;21.17;48.71;95772.56;10505575;28;1854;-79
2022/07/19 22:58:53;;;;;;;;;;;22.20;82.10;;;21.18;48.60;95774.16;10494588;28;1863;-79
2022/07/19 23:03:57;;;;;;;;;;;22.10;82.20;;;21.20;48.83;95767.22;10479084;28;2023;-78
2022/07/19 23:08:59;;;;;;;;;;;22.10;82.60;;;21.24;48.78;95767.31;10492723;28;1839;-78
2022/07/19 23:14:02;;;;;;;;;;;22.10;82.60;;;21.12;49.27;95759.94;10492746;28;1864;-77
2022/07/19 23:19:05;;;;;;;;;;;22.10;82.80;;;21.10;49.33;95754.00;10495840;28;1816;-79